createdAt,value
2022-12-11T00:00:55.820Z,98387.38
2022-12-11T00:01:58.755Z,98384.50
2022-12-11T00:03:01.159Z,98385.44
2022-12-11T00:04:05.896Z,98381.19
2022-12-11T00:05:09.048Z,98385.44
2022-12-11T00:06:15.037Z,98385.16
2022-12-11T00:07:17.654Z,98378.75
2022-12-11T00:08:20.267Z,98371.00
2022-12-11T00:09:22.832Z,98365.56
2022-12-11T00:10:25.796Z,98363.88
2022-12-11T00:11:30.401Z,98373.88
2022-12-11T00:12:32.770Z,98375.38
2022-12-11T00:13:35.828Z,98366.22
2022-12-11T00:14:38.336Z,98358.66
2022-12-11T00:15:40.684Z,98365.47
2022-12-11T00:16:43.664Z,98362.78
2022-12-11T00:17:46.014Z,98372.03
2022-12-11T00:18:48.576Z,98363.28
2022-12-11T00:19:51.145Z,98365.97
2022-12-11T00:20:53.595Z,98368.91
2022-12-11T00:21:55.934Z,98367.81
2022-12-11T00:22:58.289Z,98364.13
2022-12-11T00:24:01.007Z,98367.41
2022-12-11T00:25:03.775Z,98365.22
2022-12-11T00:26:12.689Z,98358.16
2022-12-11T00:27:15.155Z,98351.41
2022-12-11T00:28:19.095Z,98351.81
2022-12-11T00:29:21.443Z,98339.00
2022-12-11T00:30:23.697Z,98332.38
2022-12-11T00:31:26.353Z,98338.59
2022-12-11T00:32:47.406Z,98333.69
2022-12-11T00:33:51.456Z,98328.66
2022-12-11T00:34:53.732Z,98322.38
2022-12-11T00:35:58.685Z,98323.75
2022-12-11T00:37:01.046Z,98332.81
2022-12-11T00:38:03.523Z,98316.28
2022-12-11T00:39:07.591Z,98314.59
2022-12-11T00:40:12.329Z,98312.13
2022-12-11T00:41:15.825Z,98304.09
2022-12-11T00:42:18.141Z,98308.00
2022-12-11T00:43:20.558Z,98305.41
2022-12-11T00:44:22.846Z,98304.53
2022-12-11T00:45:25.250Z,98305.00
2022-12-11T00:46:27.543Z,98300.88
2022-12-11T00:47:32.341Z,98297.81
2022-12-11T00:48:35.129Z,98300.09
2022-12-11T00:49:37.396Z,98292.59
2022-12-11T00:50:40.707Z,98293.03
2022-12-11T00:51:43.377Z,98293.78
2022-12-11T00:52:45.766Z,98291.84
2022-12-11T00:53:48.331Z,98278.94
2022-12-11T00:54:50.667Z,98286.63
2022-12-11T00:55:53.100Z,98286.50
2022-12-11T00:56:56.246Z,98288.81
2022-12-11T00:57:58.710Z,98279.22
2022-12-11T00:59:01.292Z,98285.41
2022-12-11T01:00:07.242Z,98276.84
2022-12-11T01:01:12.390Z,98274.19
2022-12-11T01:02:14.966Z,98268.44
2022-12-11T01:03:18.227Z,98272.22
2022-12-11T01:04:20.690Z,98270.81
2022-12-11T01:05:23.013Z,98261.69
2022-12-11T01:06:27.781Z,98266.72
2022-12-11T01:07:30.090Z,98264.63
2022-12-11T01:08:38.486Z,98253.97
2022-12-11T01:09:59.907Z,98262.59
2022-12-11T01:11:05.265Z,98261.59
2022-12-11T01:12:08.500Z,98259.84
2022-12-11T01:13:13.512Z,98246.53
2022-12-11T01:14:15.855Z,98254.63
2022-12-11T01:15:19.316Z,98255.28
2022-12-11T01:16:22.074Z,98258.56
2022-12-11T01:17:24.719Z,98253.25
2022-12-11T01:18:27.383Z,98250.97
2022-12-11T01:19:29.689Z,98242.81
2022-12-11T01:20:32.607Z,98243.16
2022-12-11T01:21:34.983Z,98237.59
2022-12-11T01:22:37.350Z,98239.78
2022-12-11T01:23:40.225Z,98239.03
2022-12-11T01:24:42.571Z,98240.09
2022-12-11T01:25:44.979Z,98234.22
2022-12-11T01:26:47.430Z,98233.97
2022-12-11T01:27:54.783Z,98229.34
2022-12-11T01:28:57.149Z,98222.03
2022-12-11T01:29:59.476Z,98224.22
2022-12-11T01:31:01.896Z,98229.84
2022-12-11T01:32:04.395Z,98220.84
2022-12-11T01:33:06.729Z,98236.16
2022-12-11T01:34:09.119Z,98229.25
2022-12-11T01:35:12.789Z,98220.19
2022-12-11T01:36:20.790Z,98231.94
2022-12-11T01:37:23.140Z,98238.56
2022-12-11T01:38:25.750Z,98231.31
2022-12-11T01:39:28.870Z,98234.34
2022-12-11T01:40:31.195Z,98232.84
2022-12-11T01:41:33.564Z,98230.56
2022-12-11T01:42:38.974Z,98225.75
2022-12-11T01:44:01.971Z,98222.88
2022-12-11T01:45:24.631Z,98211.53
2022-12-11T01:46:30.622Z,98212.97
2022-12-11T01:47:33.098Z,98205.50
2022-12-11T01:48:41.964Z,98198.75
2022-12-11T01:49:44.740Z,98199.66
2022-12-11T01:50:53.701Z,98200.75
2022-12-11T01:52:17.011Z,98188.03
2022-12-11T01:53:41.128Z,98201.41
2022-12-11T01:54:43.937Z,98200.75
2022-12-11T01:55:47.537Z,98199.00
2022-12-11T01:56:53.671Z,98194.44
2022-12-11T01:57:56.157Z,98194.69
2022-12-11T01:59:07.444Z,98196.34
2022-12-11T02:00:10.542Z,98205.09
2022-12-11T02:01:25.192Z,98198.28
2022-12-11T02:02:30.953Z,98205.09
2022-12-11T02:03:33.626Z,98196.88
2022-12-11T02:04:37.929Z,98192.63
2022-12-11T02:05:40.331Z,98191.13
2022-12-11T02:06:48.356Z,98190.13
2022-12-11T02:07:55.257Z,98179.72
2022-12-11T02:08:57.910Z,98176.25
2022-12-11T02:10:00.290Z,98176.56
2022-12-11T02:11:18.330Z,98165.38
2022-12-11T02:12:38.841Z,98167.34
2022-12-11T02:13:49.536Z,98176.06
2022-12-11T02:15:25.708Z,98169.44
2022-12-11T02:16:43.107Z,98167.59
2022-12-11T02:22:07.756Z,98163.38
2022-12-11T02:23:13.038Z,98160.56
2022-12-11T02:24:25.314Z,98160.56
2022-12-11T02:25:35.961Z,98172.50
2022-12-11T02:26:56.227Z,98178.13
2022-12-11T02:28:22.134Z,98185.13
2022-12-11T02:29:43.617Z,98183.34
2022-12-11T02:30:53.400Z,98178.38
2022-12-11T02:32:03.450Z,98170.22
2022-12-11T02:33:07.424Z,98175.44
2022-12-11T02:34:37.833Z,98169.03
2022-12-11T02:35:43.623Z,98170.56
2022-12-11T02:36:54.506Z,98161.56
2022-12-11T02:38:01.770Z,98157.44
2022-12-11T02:39:07.389Z,98165.56
2022-12-11T02:40:13.282Z,98156.69
2022-12-11T02:41:15.656Z,98156.25
2022-12-11T02:42:19.134Z,98164.28
2022-12-11T02:43:22.589Z,98161.31
2022-12-11T02:44:30.649Z,98162.31
2022-12-11T02:45:35.028Z,98154.66
2022-12-11T02:46:38.733Z,98152.03
2022-12-11T02:47:43.778Z,98149.44
2022-12-11T02:48:49.294Z,98151.59
2022-12-11T02:49:55.430Z,98152.47
2022-12-11T02:50:59.860Z,98144.63
2022-12-11T02:52:04.193Z,98142.03
2022-12-11T02:53:07.174Z,98142.81
2022-12-11T02:54:14.632Z,98128.34
2022-12-11T02:55:18.183Z,98135.56
2022-12-11T02:56:25.821Z,98135.97
2022-12-11T02:57:36.189Z,98131.34
2022-12-11T02:58:50.687Z,98133.34
2022-12-11T02:59:56.279Z,98141.44
2022-12-11T03:00:58.834Z,98143.41
2022-12-11T03:02:02.438Z,98136.22
2022-12-11T03:03:05.223Z,98130.38
2022-12-11T03:04:07.658Z,98125.97
2022-12-11T03:05:12.412Z,98118.00
2022-12-11T03:06:20.394Z,98110.16
2022-12-11T03:07:26.387Z,98102.78
2022-12-11T03:08:28.789Z,98107.88
2022-12-11T03:09:31.043Z,98113.28
2022-12-11T03:10:33.522Z,98115.81
2022-12-11T03:11:35.794Z,98107.31
2022-12-11T03:12:42.371Z,98101.13
2022-12-11T03:13:44.778Z,98104.78
2022-12-11T03:14:49.154Z,98110.75
2022-12-11T03:16:03.461Z,98121.19
2022-12-11T03:21:20.685Z,98119.94
2022-12-11T03:22:39.128Z,98102.84
2022-12-11T03:24:03.385Z,98110.00
2022-12-11T03:25:31.223Z,98110.34
2022-12-11T03:26:41.485Z,98098.84
2022-12-11T03:28:12.393Z,98101.25
2022-12-11T03:29:21.469Z,98095.78
2022-12-11T03:30:26.005Z,98110.25
2022-12-11T03:31:56.813Z,98103.19
2022-12-11T03:33:05.391Z,98100.75
2022-12-11T03:34:26.070Z,98105.41
2022-12-11T03:35:31.671Z,98118.16
2022-12-11T03:36:37.656Z,98120.88
2022-12-11T03:37:44.730Z,98112.59
2022-12-11T03:38:52.683Z,98119.75
2022-12-11T03:40:02.901Z,98113.97
2022-12-11T03:41:07.230Z,98106.31
2022-12-11T03:42:13.472Z,98095.13
2022-12-11T03:43:17.303Z,98100.09
2022-12-11T03:44:20.933Z,98081.00
2022-12-11T03:45:25.787Z,98076.22
2022-12-11T03:46:33.089Z,98073.63
2022-12-11T03:47:39.320Z,98065.91
2022-12-11T03:48:45.335Z,98055.38
2022-12-11T03:49:49.425Z,98054.72
2022-12-11T03:50:52.633Z,98060.28
2022-12-11T03:51:58.153Z,98059.50
2022-12-11T03:53:01.827Z,98061.47
2022-12-11T03:54:04.287Z,98060.28
2022-12-11T03:55:07.109Z,98057.31
2022-12-11T03:56:12.425Z,98052.59
2022-12-11T03:57:33.827Z,98056.69
2022-12-11T03:58:36.170Z,98054.84
2022-12-11T03:59:38.683Z,98051.16
2022-12-11T04:00:41.111Z,98051.47
2022-12-11T04:01:43.571Z,98051.06
2022-12-11T04:03:12.727Z,98058.88
2022-12-11T04:04:15.764Z,98044.13
2022-12-11T04:05:18.163Z,98047.47
2022-12-11T04:06:20.720Z,98044.97
2022-12-11T04:07:25.701Z,98046.38
2022-12-11T04:08:28.254Z,98037.72
2022-12-11T04:09:30.936Z,98037.31
2022-12-11T04:10:33.517Z,98038.91
2022-12-11T04:11:36.031Z,98040.59
2022-12-11T04:12:38.239Z,98034.63
2022-12-11T04:13:41.423Z,98038.91
2022-12-11T04:15:02.118Z,98041.06
2022-12-11T04:16:05.303Z,98036.22
2022-12-11T04:21:43.661Z,98051.94
2022-12-11T04:23:04.555Z,98055.69
2022-12-11T04:24:16.901Z,98058.72
2022-12-11T04:25:19.283Z,98054.03
2022-12-11T04:26:21.820Z,98063.59
2022-12-11T04:27:43.023Z,98057.03
2022-12-11T04:28:47.332Z,98064.41
2022-12-11T04:29:50.296Z,98059.50
2022-12-11T04:30:52.672Z,98052.94
2022-12-11T04:31:55.538Z,98066.50
2022-12-11T04:32:57.992Z,98073.78
2022-12-11T04:34:00.212Z,98084.13
2022-12-11T04:35:02.986Z,98095.53
2022-12-11T04:36:06.441Z,98097.34
2022-12-11T04:37:08.723Z,98103.34
2022-12-11T04:38:11.276Z,98107.78
2022-12-11T04:39:13.641Z,98096.63
2022-12-11T04:40:18.072Z,98087.13
2022-12-11T04:41:20.441Z,98085.56
2022-12-11T04:42:22.884Z,98084.00
2022-12-11T04:43:25.280Z,98074.28
2022-12-11T04:44:27.467Z,98073.72
2022-12-11T04:45:30.590Z,98069.84
2022-12-11T04:46:33.542Z,98066.38
2022-12-11T04:47:37.456Z,98070.03
2022-12-11T04:48:40.332Z,98075.81
2022-12-11T04:49:42.818Z,98074.84
2022-12-11T04:50:45.134Z,98071.38
2022-12-11T04:51:47.437Z,98070.41
2022-12-11T04:52:49.772Z,98080.28
2022-12-11T04:53:52.195Z,98080.59
2022-12-11T04:54:54.693Z,98079.91
2022-12-11T04:55:57.240Z,98084.69
2022-12-11T04:56:59.916Z,98081.78
2022-12-11T04:58:02.227Z,98084.06
2022-12-11T04:59:04.490Z,98087.31
2022-12-11T05:00:09.906Z,98077.44
2022-12-11T05:01:15.434Z,98085.78
2022-12-11T05:02:18.849Z,98077.44
2022-12-11T05:03:23.894Z,98073.97
2022-12-11T05:04:26.476Z,98065.38
2022-12-11T05:05:28.740Z,98082.31
2022-12-11T05:06:31.412Z,98074.63
2022-12-11T05:07:33.955Z,98076.25
2022-12-11T05:08:38.278Z,98077.44
2022-12-11T05:09:40.645Z,98077.66
2022-12-11T05:10:48.588Z,98080.69
2022-12-11T05:11:52.574Z,98088.25
2022-12-11T05:12:55.027Z,98089.28
2022-12-11T05:13:57.367Z,98098.91
2022-12-11T05:14:59.677Z,98089.28
2022-12-11T05:16:05.534Z,98094.56
2022-12-11T05:21:35.029Z,98095.25
2022-12-11T05:22:38.515Z,98091.16
2022-12-11T05:23:41.680Z,98094.09
2022-12-11T05:24:44.756Z,98111.31
2022-12-11T05:25:53.465Z,98112.09
2022-12-11T05:26:56.268Z,98118.31
2022-12-11T05:28:01.245Z,98125.41
2022-12-11T05:29:03.771Z,98131.00
2022-12-11T05:30:06.885Z,98134.81
2022-12-11T05:31:15.204Z,98132.22
2022-12-11T05:32:17.539Z,98144.47
2022-12-11T05:33:20.053Z,98135.03
2022-12-11T05:34:22.347Z,98139.16
2022-12-11T05:35:24.717Z,98139.81
2022-12-11T05:36:30.562Z,98137.75
2022-12-11T05:37:34.275Z,98137.88
2022-12-11T05:38:36.976Z,98131.78
2022-12-11T05:39:39.402Z,98135.47
2022-12-11T05:40:41.941Z,98134.94
2022-12-11T05:41:44.191Z,98135.03
2022-12-11T05:42:46.539Z,98142.53
2022-12-11T05:43:49.043Z,98144.09
2022-12-11T05:44:51.341Z,98141.22
2022-12-11T05:45:54.051Z,98151.84
2022-12-11T05:46:56.374Z,98155.53
2022-12-11T05:47:58.708Z,98153.94
2022-12-11T05:49:03.238Z,98153.47
2022-12-11T05:50:05.948Z,98157.69
2022-12-11T05:51:09.185Z,98154.22
2022-12-11T05:52:11.491Z,98155.00
2022-12-11T05:53:13.837Z,98154.91
2022-12-11T05:54:16.595Z,98159.00
2022-12-11T05:55:18.838Z,98161.63
2022-12-11T05:56:25.004Z,98158.03
2022-12-11T05:57:27.770Z,98165.19
2022-12-11T05:58:30.591Z,98173.91
2022-12-11T05:59:33.462Z,98170.97
2022-12-11T06:00:36.418Z,98173.88
2022-12-11T06:01:41.509Z,98170.44
2022-12-11T06:02:44.111Z,98176.06
2022-12-11T06:03:47.069Z,98171.19
2022-12-11T06:04:49.490Z,98172.81
2022-12-11T06:05:54.570Z,98177.69
2022-12-11T06:06:56.884Z,98177.13
2022-12-11T06:07:59.237Z,98170.19
2022-12-11T06:09:01.931Z,98170.19
2022-12-11T06:10:04.755Z,98176.72
2022-12-11T06:11:07.370Z,98178.44
2022-12-11T06:12:09.837Z,98180.94
2022-12-11T06:13:12.131Z,98182.34
2022-12-11T06:14:14.606Z,98179.81
2022-12-11T06:15:17.052Z,98184.28
2022-12-11T06:16:20.398Z,98189.25
2022-12-11T06:17:22.837Z,98189.56
2022-12-11T06:18:25.568Z,98190.97
2022-12-11T06:19:31.904Z,98190.09
2022-12-11T06:20:37.610Z,98194.78
2022-12-11T06:21:40.036Z,98190.75
2022-12-11T06:22:42.523Z,98194.00
2022-12-11T06:23:47.043Z,98200.44
2022-12-11T06:24:49.519Z,98200.81
2022-12-11T06:25:51.911Z,98202.34
2022-12-11T06:26:54.350Z,98201.16
2022-12-11T06:27:56.778Z,98207.44
2022-12-11T06:28:59.431Z,98206.03
2022-12-11T06:30:01.728Z,98213.97
2022-12-11T06:31:04.319Z,98211.69
2022-12-11T06:32:07.174Z,98210.59
2022-12-11T06:33:09.336Z,98208.88
2022-12-11T06:34:13.985Z,98211.78
2022-12-11T06:35:16.606Z,98217.00
2022-12-11T06:36:22.230Z,98224.16
2022-12-11T06:37:24.607Z,98220.91
2022-12-11T06:38:26.987Z,98229.75
2022-12-11T06:39:30.279Z,98233.88
2022-12-11T06:40:33.694Z,98231.16
2022-12-11T06:41:36.984Z,98238.13
2022-12-11T06:42:39.322Z,98234.00
2022-12-11T06:43:43.564Z,98244.47
2022-12-11T06:44:46.165Z,98238.41
2022-12-11T06:45:48.466Z,98232.69
2022-12-11T06:46:50.904Z,98229.25
2022-12-11T06:47:53.404Z,98237.38
2022-12-11T06:48:55.937Z,98237.47
2022-12-11T06:49:58.616Z,98237.88
2022-12-11T06:51:05.219Z,98237.97
2022-12-11T06:52:07.642Z,98237.66
2022-12-11T06:53:10.565Z,98243.44
2022-12-11T06:54:15.173Z,98241.38
2022-12-11T06:55:17.490Z,98243.84
2022-12-11T06:56:20.520Z,98251.56
2022-12-11T06:57:23.134Z,98258.59
2022-12-11T06:58:26.050Z,98250.25
2022-12-11T06:59:28.433Z,98250.25
2022-12-11T07:00:31.603Z,98264.34
2022-12-11T07:01:34.315Z,98263.69
2022-12-11T07:02:36.671Z,98264.88
2022-12-11T07:03:39.355Z,98264.56
2022-12-11T07:04:42.563Z,98271.59
2022-12-11T07:05:44.914Z,98273.03
2022-12-11T07:06:49.374Z,98277.69
2022-12-11T07:07:54.708Z,98275.25
2022-12-11T07:08:57.559Z,98280.81
2022-12-11T07:10:18.439Z,98288.94
2022-12-11T07:11:21.180Z,98292.28
2022-12-11T07:12:23.518Z,98291.72
2022-12-11T07:13:25.932Z,98304.28
2022-12-11T07:14:28.468Z,98310.13
2022-12-11T07:15:37.699Z,98316.09
2022-12-11T07:16:42.692Z,98315.78
2022-12-11T07:17:45.167Z,98324.31
2022-12-11T07:18:50.337Z,98318.50
2022-12-11T07:19:52.739Z,98323.59
2022-12-11T07:20:55.089Z,98328.50
2022-12-11T07:22:00.508Z,98331.97
2022-12-11T07:23:02.954Z,98342.41
2022-12-11T07:24:05.631Z,98341.19
2022-12-11T07:25:08.682Z,98336.28
2022-12-11T07:26:14.123Z,98343.31
2022-12-11T07:27:16.425Z,98336.28
2022-12-11T07:28:18.778Z,98344.56
2022-12-11T07:29:21.464Z,98350.00
2022-12-11T07:30:24.046Z,98357.19
2022-12-11T07:31:28.209Z,98362.13
2022-12-11T07:32:31.083Z,98371.78
2022-12-11T07:33:34.069Z,98371.19
2022-12-11T07:34:44.122Z,98377.22
2022-12-11T07:35:49.794Z,98385.72
2022-12-11T07:36:52.118Z,98392.00
2022-12-11T07:37:54.617Z,98382.50
2022-12-11T07:38:57.140Z,98391.63
2022-12-11T07:39:59.537Z,98396.69
2022-12-11T07:41:06.647Z,98394.63
2022-12-11T07:42:09.067Z,98401.22
2022-12-11T07:43:11.227Z,98402.63
2022-12-11T07:44:13.787Z,98412.91
2022-12-11T07:45:16.289Z,98414.13
2022-12-11T07:46:22.333Z,98412.19
2022-12-11T07:47:24.749Z,98414.78
2022-12-11T07:48:26.978Z,98416.72
2022-12-11T07:49:29.592Z,98409.09
2022-12-11T07:50:38.051Z,98414.81
2022-12-11T07:51:43.180Z,98414.56
2022-12-11T07:52:45.556Z,98419.88
2022-12-11T07:53:49.755Z,98431.63
2022-12-11T07:54:51.996Z,98432.69
2022-12-11T07:55:54.420Z,98446.06
2022-12-11T07:56:56.944Z,98443.91
2022-12-11T07:58:01.694Z,98446.41
2022-12-11T07:59:05.579Z,98448.72
2022-12-11T08:00:08.716Z,98452.25
2022-12-11T08:01:20.625Z,98449.72
2022-12-11T08:02:23.000Z,98457.19
2022-12-11T08:03:25.672Z,98460.28
2022-12-11T08:04:28.010Z,98469.25
2022-12-11T08:05:30.612Z,98463.75
2022-12-11T08:06:35.387Z,98473.53
2022-12-11T08:07:37.670Z,98464.75
2022-12-11T08:08:41.854Z,98476.38
2022-12-11T08:09:44.074Z,98479.91
2022-12-11T08:10:46.693Z,98486.78
2022-12-11T08:11:52.317Z,98486.00
2022-12-11T08:12:55.550Z,98491.78
2022-12-11T08:13:59.589Z,98492.09
2022-12-11T08:15:01.893Z,98499.75
2022-12-11T08:16:08.094Z,98510.63
2022-12-11T08:21:51.651Z,98512.75
2022-12-11T08:22:58.891Z,98513.38
2022-12-11T08:24:01.754Z,98510.94
2022-12-11T08:25:04.382Z,98519.00
2022-12-11T08:26:09.234Z,98512.47
2022-12-11T08:27:11.488Z,98515.06
2022-12-11T08:28:14.591Z,98519.47
2022-12-11T08:29:17.013Z,98521.78
2022-12-11T08:30:19.269Z,98527.25
2022-12-11T08:31:22.002Z,98525.91
2022-12-11T08:32:24.571Z,98537.19
2022-12-11T08:33:26.978Z,98536.88
2022-12-11T08:34:29.254Z,98539.47
2022-12-11T08:35:31.780Z,98537.50
2022-12-11T08:36:34.303Z,98544.06
2022-12-11T08:37:36.678Z,98546.22
2022-12-11T08:38:39.797Z,98554.44
2022-12-11T08:39:43.952Z,98560.09
2022-12-11T08:40:46.176Z,98558.28
2022-12-11T08:41:48.576Z,98556.41
2022-12-11T08:42:54.367Z,98561.16
2022-12-11T08:43:58.831Z,98569.75
2022-12-11T08:45:01.099Z,98577.53
2022-12-11T08:46:03.390Z,98579.38
2022-12-11T08:47:05.827Z,98577.06
2022-12-11T08:48:08.108Z,98581.97
2022-12-11T08:49:10.714Z,98587.28
2022-12-11T08:50:13.434Z,98588.34
2022-12-11T08:51:18.356Z,98592.63
2022-12-11T08:52:20.619Z,98597.69
2022-12-11T08:53:22.849Z,98595.88
2022-12-11T08:54:25.582Z,98606.41
2022-12-11T08:55:27.908Z,98606.41
2022-12-11T08:56:30.739Z,98612.38
2022-12-11T08:57:33.011Z,98605.78
2022-12-11T08:58:35.995Z,98617.25
2022-12-11T08:59:38.344Z,98616.78
2022-12-11T09:00:40.900Z,98618.59
2022-12-11T09:01:43.229Z,98623.91
2022-12-11T09:02:45.697Z,98631.41
2022-12-11T09:03:49.299Z,98621.66
2022-12-11T09:04:51.574Z,98630.97
2022-12-11T09:05:53.986Z,98634.19
2022-12-11T09:06:56.567Z,98629.69
2022-12-11T09:07:59.132Z,98632.63
2022-12-11T09:09:01.999Z,98632.81
2022-12-11T09:10:06.210Z,98642.44
2022-12-11T09:11:11.583Z,98648.69
2022-12-11T09:12:14.151Z,98645.00
2022-12-11T09:13:16.425Z,98647.16
2022-12-11T09:14:18.978Z,98641.78
2022-12-11T09:15:21.399Z,98643.94
2022-12-11T09:16:25.600Z,98647.91
2022-12-11T09:17:28.219Z,98647.28
2022-12-11T09:18:31.589Z,98656.00
2022-12-11T09:19:34.019Z,98658.91
2022-12-11T09:20:37.605Z,98659.53
2022-12-11T09:21:40.559Z,98667.03
2022-12-11T09:22:43.096Z,98659.38
2022-12-11T09:23:45.581Z,98658.44
2022-12-11T09:24:47.931Z,98660.44
2022-12-11T09:25:50.239Z,98673.91
2022-12-11T09:26:52.622Z,98667.78
2022-12-11T09:27:54.979Z,98670.69
2022-12-11T09:28:58.445Z,98670.22
2022-12-11T09:30:00.867Z,98681.06
2022-12-11T09:31:14.445Z,98678.91
2022-12-11T09:32:16.754Z,98677.06
2022-12-11T09:33:19.289Z,98681.03
2022-12-11T09:34:28.693Z,98679.94
2022-12-11T09:35:31.589Z,98689.41
2022-12-11T09:36:35.244Z,98694.66
2022-12-11T09:37:37.946Z,98688.06
2022-12-11T09:38:40.374Z,98689.41
2022-12-11T09:39:42.942Z,98694.59
2022-12-11T09:40:45.702Z,98687.41
2022-12-11T09:41:56.912Z,98693.22
2022-12-11T09:43:22.844Z,98694.56
2022-12-11T09:44:43.696Z,98699.47
2022-12-11T09:45:46.679Z,98708.53
2022-12-11T09:46:50.199Z,98728.56
2022-12-11T09:47:55.649Z,98724.44
2022-12-11T09:48:58.683Z,98727.06
2022-12-11T09:50:09.739Z,98726.88
2022-12-11T09:51:22.759Z,98724.31
2022-12-11T09:52:53.335Z,98730.69
2022-12-11T09:54:00.776Z,98731.34
2022-12-11T09:55:13.315Z,98738.66
2022-12-11T09:56:39.621Z,98748.00
2022-12-11T09:58:09.708Z,98749.09
2022-12-11T09:59:33.113Z,98753.22
2022-12-11T10:01:03.589Z,98755.81
2022-12-11T10:02:06.160Z,98756.59
2022-12-11T10:03:29.604Z,98758.38
2022-12-11T10:04:37.785Z,98759.59
2022-12-11T10:06:04.007Z,98748.13
2022-12-11T10:11:28.744Z,98752.91
2022-12-11T10:12:40.736Z,98746.00
2022-12-11T10:13:55.006Z,98741.25
2022-12-11T10:15:33.996Z,98745.38
2022-12-11T10:16:44.127Z,98749.66
2022-12-11T10:17:47.430Z,98754.41
2022-12-11T10:18:50.232Z,98747.22
2022-12-11T10:19:53.042Z,98753.47
2022-12-11T10:20:56.866Z,98760.22
2022-12-11T10:22:01.207Z,98760.78
2022-12-11T10:23:06.356Z,98763.38
2022-12-11T10:26:07.283Z,98779.94
2022-12-11T10:31:56.661Z,98788.84
2022-12-11T10:33:23.436Z,98791.38
2022-12-11T10:34:37.755Z,98794.91
2022-12-11T10:35:48.972Z,98788.00
2022-12-11T10:41:36.693Z,98787.34
2022-12-11T10:42:45.500Z,98797.28
2022-12-11T10:43:50.890Z,98797.09
2022-12-11T10:45:02.812Z,98804.13
2022-12-11T10:46:07.852Z,98813.41
2022-12-11T10:47:15.685Z,98811.03
2022-12-11T10:48:18.119Z,98811.34
2022-12-11T10:49:24.182Z,98818.13
2022-12-11T10:50:26.800Z,98835.25
2022-12-11T10:51:32.086Z,98833.47
2022-12-11T10:52:45.516Z,98834.03
2022-12-11T10:53:58.717Z,98830.03
2022-12-11T10:55:45.825Z,98833.09
2022-12-11T10:56:49.745Z,98829.88
2022-12-11T10:58:01.128Z,98840.84
2022-12-11T10:59:04.178Z,98834.78
2022-12-11T11:00:26.691Z,98840.16
2022-12-11T11:01:31.682Z,98848.53
2022-12-11T11:02:45.436Z,98850.56
2022-12-11T11:04:07.479Z,98860.50
2022-12-11T11:05:27.334Z,98857.28
2022-12-11T11:06:30.003Z,98858.78
2022-12-11T11:07:34.484Z,98853.31
2022-12-11T11:08:45.884Z,98862.31
2022-12-11T11:09:48.842Z,98863.53
2022-12-11T11:10:54.495Z,98860.00
2022-12-11T11:11:57.698Z,98858.13
2022-12-11T11:13:03.405Z,98861.09
2022-12-11T11:14:18.403Z,98857.09
2022-12-11T11:15:27.306Z,98857.41
2022-12-11T11:16:30.280Z,98865.84
2022-12-11T11:17:35.414Z,98868.75
2022-12-11T11:18:43.099Z,98869.69
2022-12-11T11:19:48.431Z,98869.53
2022-12-11T11:20:53.421Z,98874.00
2022-12-11T11:21:59.450Z,98867.56
2022-12-11T11:23:10.222Z,98865.91
2022-12-11T11:24:24.989Z,98864.03
2022-12-11T11:25:30.231Z,98863.88
2022-12-11T11:27:11.283Z,98867.69
2022-12-11T11:28:01.366Z,98866.91
2022-12-11T11:29:30.372Z,98872.72
2022-12-11T11:30:37.009Z,98870.50
2022-12-11T11:31:39.420Z,98868.31
2022-12-11T11:32:41.792Z,98861.88
2022-12-11T11:33:57.557Z,98870.34
2022-12-11T11:35:27.541Z,98873.38
2022-12-11T11:36:33.480Z,98871.69
2022-12-11T11:37:36.010Z,98872.13
2022-12-11T11:38:46.764Z,98867.25
2022-12-11T11:39:53.167Z,98868.31
2022-12-11T11:41:17.414Z,98876.59
2022-12-11T11:42:28.083Z,98877.94
2022-12-11T11:43:37.305Z,98881.19
2022-12-11T11:44:47.067Z,98876.75
2022-12-11T11:46:29.400Z,98871.84
2022-12-11T11:47:41.792Z,98878.91
2022-12-11T11:49:07.831Z,98883.34
2022-12-11T11:50:22.513Z,98885.75
2022-12-11T11:51:34.541Z,98886.53
2022-12-11T11:53:02.918Z,98888.06
2022-12-11T11:54:33.984Z,98885.03
2022-12-11T11:56:04.089Z,98881.63
2022-12-11T11:57:27.372Z,98891.88
2022-12-11T11:58:44.439Z,98888.84
2022-12-11T11:59:58.156Z,98897.25
2022-12-11T12:01:00.808Z,98900.31
2022-12-11T12:02:17.975Z,98893.16
2022-12-11T12:03:23.327Z,98906.91
2022-12-11T12:04:31.620Z,98912.00
2022-12-11T12:05:37.965Z,98913.38
2022-12-11T12:06:50.708Z,98910.16
2022-12-11T12:08:17.313Z,98911.22
2022-12-11T12:10:05.491Z,98924.56
2022-12-11T12:11:41.891Z,98915.69
2022-12-11T12:13:47.516Z,98924.09
2022-12-11T12:15:04.390Z,98927.19
2022-12-11T12:16:51.088Z,98937.44
2022-12-11T12:17:56.028Z,98935.59
2022-12-11T12:19:28.117Z,98943.75
2022-12-11T12:20:35.849Z,98940.22
2022-12-11T12:21:42.598Z,98947.69
2022-12-11T12:23:03.611Z,98943.44
2022-12-11T12:24:12.224Z,98940.31
2022-12-11T12:25:33.315Z,98932.69
2022-12-11T12:26:52.390Z,98921.19
2022-12-11T12:28:08.092Z,98919.78
2022-12-11T12:29:10.686Z,98918.84
2022-12-11T12:30:22.020Z,98916.97
2022-12-11T12:31:51.003Z,98913.16
2022-12-11T12:33:13.635Z,98919.28
2022-12-11T12:34:25.105Z,98920.34
2022-12-11T12:35:37.385Z,98918.22
2022-12-11T12:36:50.138Z,98924.03
2022-12-11T12:38:07.208Z,98929.25
2022-12-11T12:39:44.836Z,98919.47
2022-12-11T12:41:06.280Z,98925.09
2022-12-11T12:42:48.572Z,98929.25
2022-12-11T12:44:09.726Z,98929.59
2022-12-11T12:45:15.237Z,98930.69
2022-12-11T12:46:56.636Z,98935.75
2022-12-11T12:47:59.722Z,98941.72
2022-12-11T12:49:04.565Z,98940.63
2022-12-11T12:50:16.640Z,98938.81
2022-12-11T12:51:19.360Z,98939.09
2022-12-11T12:52:29.876Z,98934.84
2022-12-11T12:53:38.069Z,98936.84
2022-12-11T12:54:42.929Z,98945.56
2022-12-11T12:55:48.147Z,98941.44
2022-12-11T12:56:50.862Z,98942.19
2022-12-11T12:57:57.743Z,98939.28
2022-12-11T12:59:00.902Z,98948.00
2022-12-11T13:00:11.087Z,98942.19
2022-12-11T13:01:21.889Z,98950.31
2022-12-11T13:02:24.785Z,98950.78
2022-12-11T13:03:30.978Z,98952.59
2022-12-11T13:04:55.520Z,98961.50
2022-12-11T13:05:58.674Z,98958.13
2022-12-11T13:07:16.261Z,98956.00
2022-12-11T13:08:25.880Z,98967.97
2022-12-11T13:09:28.783Z,98972.69
2022-12-11T13:10:34.364Z,98976.97
2022-12-11T13:11:36.950Z,98984.25
2022-12-11T13:12:47.163Z,98987.16
2022-12-11T13:14:03.430Z,99000.59
2022-12-11T13:15:06.180Z,99000.59
2022-12-11T13:16:17.350Z,98996.94
2022-12-11T13:21:35.889Z,99015.50
2022-12-11T13:22:56.094Z,99018.09
2022-12-11T13:24:15.451Z,99023.00
2022-12-11T13:25:22.955Z,99012.44
2022-12-11T13:26:31.185Z,99016.13
2022-12-11T13:27:39.886Z,99017.19
2022-12-11T13:28:42.313Z,99010.28
2022-12-11T13:29:44.739Z,99005.66
2022-12-11T13:31:16.869Z,99008.75
2022-12-11T13:32:19.407Z,99012.09
2022-12-11T13:33:23.285Z,99010.72
2022-12-11T13:34:29.532Z,99005.06
2022-12-11T13:35:34.356Z,99006.00
2022-12-11T13:36:40.164Z,99003.25
2022-12-11T13:37:50.134Z,99005.50
2022-12-11T13:39:03.059Z,99003.06
2022-12-11T13:40:34.017Z,99009.81
2022-12-11T13:41:38.444Z,99007.19
2022-12-11T13:42:50.588Z,99003.69
2022-12-11T13:43:54.092Z,99003.22
2022-12-11T13:44:57.132Z,99005.97
2022-12-11T13:46:03.567Z,99008.75
2022-12-11T13:47:11.283Z,99008.59
2022-12-11T13:48:24.515Z,99008.91